createdAt,value
2019-03-29T00:01:05.318Z,40.07
2019-03-29T00:03:41.185Z,39.27
2019-03-29T00:06:13.515Z,40.17
2019-03-29T00:08:43.161Z,42.30
2019-03-29T00:11:33.148Z,36.57
2019-03-29T00:14:02.932Z,39.07
2019-03-29T00:16:33.057Z,36.67
2019-03-29T00:19:15.503Z,35.80
2019-03-29T00:21:48.043Z,35.47
2019-03-29T00:24:33.684Z,35.33
2019-03-29T00:27:05.931Z,37.97
2019-03-29T00:29:35.132Z,34.80
2019-03-29T00:32:34.053Z,35.20
2019-03-29T00:35:03.669Z,34.37
2019-03-29T00:38:09.637Z,35.60
2019-03-29T00:41:10.958Z,33.07
2019-03-29T00:43:51.359Z,34.60
2019-03-29T00:46:21.885Z,35.30
2019-03-29T00:48:51.397Z,34.37
2019-03-29T00:51:30.917Z,34.27
2019-03-29T00:54:23.347Z,33.43
2019-03-29T00:57:02.609Z,31.80
2019-03-29T00:59:33.268Z,35.07
2019-03-29T01:02:06.439Z,35.63
2019-03-29T01:04:37.098Z,35.67
2019-03-29T01:07:08.070Z,34.93
2019-03-29T01:09:38.478Z,33.93
2019-03-29T01:12:08.066Z,32.90
2019-03-29T01:14:39.316Z,34.63
2019-03-29T01:17:09.201Z,32.27
2019-03-29T01:19:39.144Z,35.07
2019-03-29T01:22:44.423Z,34.83
2019-03-29T01:25:15.893Z,34.37
2019-03-29T01:27:45.400Z,33.30
2019-03-29T01:30:17.289Z,34.53
2019-03-29T01:36:04.845Z,33.30
2019-03-29T01:38:28.398Z,32.40
2019-03-29T01:40:58.024Z,30.40
2019-03-29T01:43:34.021Z,32.93
2019-03-29T01:46:03.400Z,33.07
2019-03-29T01:48:33.419Z,32.03
2019-03-29T01:51:09.284Z,31.23
2019-03-29T01:53:39.857Z,29.77
2019-03-29T01:56:31.243Z,32.30
2019-03-29T01:59:52.409Z,30.60
2019-03-29T02:05:19.003Z,31.17
2019-03-29T02:07:52.419Z,31.53
2019-03-29T02:10:31.434Z,32.27
2019-03-29T02:13:21.972Z,29.63
2019-03-29T02:16:24.425Z,30.27
2019-03-29T02:22:15.548Z,29.50
2019-03-29T02:24:57.880Z,29.17
2019-03-29T02:28:01.045Z,29.67
2019-03-29T02:30:58.853Z,27.80
2019-03-29T02:36:25.610Z,27.97
2019-03-29T02:39:04.990Z,27.43
2019-03-29T02:41:38.430Z,26.70
2019-03-29T02:44:20.222Z,29.03
2019-03-29T02:47:07.805Z,26.47
2019-03-29T02:49:49.186Z,26.70
2019-03-29T02:52:21.795Z,26.40
2019-03-29T02:54:51.224Z,24.17
2019-03-29T02:57:27.852Z,25.23
2019-03-29T02:59:57.300Z,26.07
2019-03-29T03:02:26.926Z,23.80
2019-03-29T03:05:09.049Z,24.17
2019-03-29T03:07:40.174Z,25.60
2019-03-29T03:13:02.246Z,23.17
2019-03-29T03:15:32.061Z,24.93
2019-03-29T03:18:01.839Z,21.20
2019-03-29T03:20:31.327Z,22.73
2019-03-29T03:25:56.839Z,23.07
2019-03-29T03:28:26.445Z,20.03
2019-03-29T03:30:57.746Z,23.23
2019-03-29T03:33:27.294Z,21.77
2019-03-29T03:35:56.936Z,22.43
2019-03-29T03:38:26.860Z,23.57
2019-03-29T03:40:57.044Z,21.83
2019-03-29T03:43:46.328Z,20.87
2019-03-29T03:46:16.095Z,19.00
2019-03-29T03:48:47.412Z,19.73
2019-03-29T03:51:23.467Z,22.63
2019-03-29T03:54:12.505Z,20.87
2019-03-29T03:56:30.267Z,20.47
2019-03-29T03:59:02.645Z,21.10
2019-03-29T04:01:39.586Z,19.03
2019-03-29T04:04:09.111Z,19.00
2019-03-29T04:06:39.169Z,18.73
2019-03-29T04:09:11.403Z,18.90
2019-03-29T04:11:52.312Z,19.83
2019-03-29T04:14:30.691Z,19.57
2019-03-29T04:17:15.594Z,18.10
2019-03-29T04:19:51.505Z,18.73
2019-03-29T04:22:30.275Z,19.20
2019-03-29T04:25:01.093Z,16.13
2019-03-29T04:27:51.312Z,20.33
2019-03-29T04:30:30.914Z,19.07
2019-03-29T04:33:12.103Z,18.93
2019-03-29T04:35:56.612Z,18.60
2019-03-29T04:38:27.683Z,16.70
2019-03-29T04:40:58.614Z,16.10
2019-03-29T04:43:27.962Z,16.53
2019-03-29T04:45:57.459Z,17.10
2019-03-29T04:48:35.716Z,16.40
2019-03-29T04:51:21.541Z,19.00
2019-03-29T04:54:17.978Z,17.27
2019-03-29T04:56:52.417Z,15.77
2019-03-29T04:59:22.043Z,15.70
2019-03-29T05:02:08.238Z,17.50
2019-03-29T05:04:40.894Z,15.67
2019-03-29T05:07:20.775Z,16.17
2019-03-29T05:12:49.827Z,13.80
2019-03-29T05:18:18.346Z,13.53
2019-03-29T05:20:58.313Z,16.30
2019-03-29T05:26:33.638Z,15.50
2019-03-29T05:29:09.672Z,13.67
2019-03-29T05:38:40.151Z,15.10
2019-03-29T05:41:11.176Z,12.60
2019-03-29T05:43:55.470Z,15.20
2019-03-29T05:46:36.651Z,16.33
2019-03-29T05:48:59.221Z,13.67
2019-03-29T05:51:28.632Z,13.47
2019-03-29T05:53:59.022Z,12.33
2019-03-29T05:56:47.532Z,13.83
2019-03-29T06:02:10.397Z,15.27
2019-03-29T06:04:41.922Z,14.73
2019-03-29T06:07:38.427Z,12.43
2019-03-29T06:10:14.766Z,14.50
2019-03-29T06:12:45.902Z,15.93
2019-03-29T06:15:30.888Z,24.80
2019-03-29T06:18:04.545Z,15.77
2019-03-29T06:20:34.438Z,16.00
2019-03-29T06:23:04.485Z,15.63
2019-03-29T06:25:35.246Z,15.67
2019-03-29T06:28:31.320Z,16.03
2019-03-29T06:31:19.125Z,15.17
2019-03-29T06:33:48.534Z,16.53
2019-03-29T06:36:28.478Z,16.90
2019-03-29T06:39:08.291Z,13.57
2019-03-29T06:44:45.966Z,16.23
2019-03-29T06:47:23.367Z,15.03
2019-03-29T06:50:14.728Z,14.93
2019-03-29T06:52:44.325Z,15.10
2019-03-29T06:55:15.370Z,14.47
2019-03-29T06:57:46.890Z,14.60
2019-03-29T07:00:18.793Z,15.33
2019-03-29T07:05:42.253Z,17.10
2019-03-29T07:08:19.454Z,17.37
2019-03-29T07:11:16.224Z,18.63
2019-03-29T07:13:33.821Z,20.53
2019-03-29T07:16:13.508Z,21.77
2019-03-29T07:18:44.341Z,22.47
2019-03-29T07:21:44.279Z,23.57
2019-03-29T07:24:16.140Z,27.17
2019-03-29T07:26:46.690Z,27.63
2019-03-29T07:29:20.522Z,29.17
2019-03-29T07:31:53.054Z,33.47
2019-03-29T07:34:38.202Z,31.87
2019-03-29T07:37:08.194Z,33.63
2019-03-29T07:39:39.774Z,35.73
2019-03-29T07:42:11.888Z,37.87
2019-03-29T07:47:20.993Z,41.40
2019-03-29T07:49:52.878Z,42.00
2019-03-29T07:52:25.854Z,44.97
2019-03-29T07:55:15.977Z,44.67
2019-03-29T07:57:45.523Z,46.63
2019-03-29T08:00:20.205Z,44.77
2019-03-29T08:02:48.237Z,49.00
2019-03-29T08:05:18.130Z,50.93
2019-03-29T08:07:49.470Z,55.60
2019-03-29T08:13:20.024Z,51.73
2019-03-29T08:15:50.112Z,53.40
2019-03-29T08:18:19.763Z,53.37
2019-03-29T08:20:49.434Z,55.87
2019-03-29T08:23:19.466Z,55.53
2019-03-29T08:25:49.283Z,51.10
2019-03-29T08:28:19.035Z,54.77
2019-03-29T08:33:24.599Z,53.27
2019-03-29T08:35:56.225Z,52.30
2019-03-29T08:38:26.787Z,64.70
2019-03-29T08:40:57.582Z,64.73
2019-03-29T08:43:36.061Z,66.53
2019-03-29T08:46:05.575Z,57.20
2019-03-29T08:51:16.537Z,59.80
2019-03-29T08:53:46.511Z,51.47
2019-03-29T08:56:17.638Z,50.93
2019-03-29T08:58:49.646Z,50.90
2019-03-29T09:01:19.791Z,48.83
2019-03-29T09:04:09.413Z,49.43
2019-03-29T09:06:52.676Z,47.93
2019-03-29T09:09:15.723Z,48.23
2019-03-29T09:23:35.478Z,42.17
2019-03-29T09:26:05.824Z,39.57
2019-03-29T09:28:43.226Z,38.13
2019-03-29T09:33:51.766Z,37.50
2019-03-29T09:36:21.729Z,36.40
2019-03-29T09:38:52.628Z,34.07
2019-03-29T09:44:08.938Z,32.87
2019-03-29T09:52:32.978Z,32.50
2019-03-29T09:55:02.539Z,32.57
2019-03-29T10:00:33.287Z,29.47
2019-03-29T10:03:08.552Z,30.83
2019-03-29T10:06:19.121Z,31.20
2019-03-29T10:32:22.019Z,26.93
2019-03-29T10:40:27.635Z,27.30
2019-03-29T10:42:58.491Z,29.37
2019-03-29T10:51:24.694Z,25.43
2019-03-29T10:53:55.598Z,23.70
2019-03-29T10:56:34.452Z,24.37
2019-03-29T10:59:06.875Z,26.17
2019-03-29T11:04:42.740Z,24.37
2019-03-29T11:07:17.995Z,25.57
2019-03-29T11:09:50.478Z,24.17
2019-03-29T11:15:52.231Z,22.47
2019-03-29T11:18:22.049Z,20.73
2019-03-29T11:20:52.911Z,18.60
2019-03-29T11:23:22.900Z,20.27
2019-03-29T11:25:54.498Z,19.17
2019-03-29T11:28:23.954Z,17.87
2019-03-29T11:31:16.866Z,18.83
2019-03-29T11:36:44.746Z,20.20
2019-03-29T11:39:14.625Z,19.53
2019-03-29T11:44:30.493Z,19.73
2019-03-29T11:47:00.250Z,21.10
2019-03-29T11:49:32.837Z,21.87
2019-03-29T11:52:02.266Z,20.43
2019-03-29T11:54:31.795Z,21.37
2019-03-29T11:57:01.846Z,22.67
2019-03-29T11:59:34.202Z,26.53
2019-03-29T12:02:03.630Z,37.23
2019-03-29T12:04:36.485Z,41.13
2019-03-29T12:07:09.600Z,39.10
2019-03-29T12:09:56.799Z,46.80
2019-03-29T12:12:27.711Z,47.90
2019-03-29T12:15:03.388Z,56.87
2019-03-29T12:17:33.087Z,50.47
2019-03-29T12:20:02.845Z,51.37
2019-03-29T12:22:37.307Z,44.30
2019-03-29T12:25:06.939Z,45.87
2019-03-29T12:27:36.275Z,52.57
2019-03-29T12:30:31.343Z,53.20
2019-03-29T12:35:54.069Z,44.40
2019-03-29T12:38:38.097Z,46.30
2019-03-29T12:41:19.306Z,43.10
2019-03-29T12:43:55.865Z,42.10
2019-03-29T12:46:32.443Z,42.33
2019-03-29T12:49:02.026Z,40.80
2019-03-29T12:51:31.764Z,40.03
2019-03-29T12:54:01.718Z,41.07
2019-03-29T12:59:37.468Z,38.60
2019-03-29T13:02:07.292Z,38.83
2019-03-29T13:04:36.711Z,35.23
2019-03-29T13:10:56.920Z,32.37
2019-03-29T13:13:41.063Z,31.00
2019-03-29T13:16:10.951Z,30.33
2019-03-29T13:18:47.651Z,27.80
2019-03-29T13:21:17.163Z,30.17
2019-03-29T13:23:46.544Z,28.83
2019-03-29T13:29:07.871Z,26.43
2019-03-29T13:31:38.306Z,24.77
2019-03-29T13:34:08.068Z,27.17
2019-03-29T13:36:41.497Z,24.33
2019-03-29T13:39:38.261Z,24.63
2019-03-29T13:42:07.910Z,26.00
2019-03-29T13:44:37.353Z,26.10
2019-03-29T13:52:24.001Z,20.70
2019-03-29T13:55:15.374Z,20.80
2019-03-29T13:57:44.922Z,19.97
2019-03-29T14:00:14.598Z,21.33
2019-03-29T14:02:45.785Z,19.87
2019-03-29T14:05:15.491Z,19.53
2019-03-29T14:08:08.281Z,19.73
2019-03-29T14:10:37.833Z,17.10
2019-03-29T14:13:09.003Z,17.43
2019-03-29T14:15:38.990Z,17.07
2019-03-29T14:18:11.008Z,18.60
2019-03-29T14:23:26.411Z,19.20
2019-03-29T14:25:55.978Z,17.83
2019-03-29T14:28:25.728Z,19.47
2019-03-29T14:31:00.745Z,20.40
2019-03-29T14:33:34.995Z,19.67
2019-03-29T14:36:04.447Z,18.23
2019-03-29T14:38:34.886Z,19.37
2019-03-29T14:41:04.666Z,19.43
2019-03-29T14:43:34.364Z,16.97
2019-03-29T14:46:03.850Z,19.47
2019-03-29T14:48:33.310Z,18.43
2019-03-29T14:51:03.104Z,18.83
2019-03-29T14:53:34.116Z,17.10
2019-03-29T14:56:04.069Z,17.43
2019-03-29T15:01:56.376Z,18.53
2019-03-29T15:04:29.438Z,17.90
2019-03-29T15:07:02.588Z,19.00
2019-03-29T15:09:37.858Z,20.27
2019-03-29T15:12:29.078Z,18.53
2019-03-29T15:15:05.995Z,18.50
2019-03-29T15:17:29.826Z,19.20
2019-03-29T15:20:18.466Z,19.30
2019-03-29T15:22:48.152Z,17.23
2019-03-29T15:28:37.263Z,18.57
2019-03-29T15:31:26.555Z,17.63
2019-03-29T15:34:20.897Z,18.37
2019-03-29T15:36:52.040Z,17.00
2019-03-29T15:39:24.224Z,18.70
2019-03-29T15:41:54.043Z,18.80
2019-03-29T15:44:23.659Z,20.13
2019-03-29T15:47:02.232Z,19.13
2019-03-29T15:52:21.098Z,18.40
2019-03-29T15:54:52.588Z,18.17
2019-03-29T15:57:51.404Z,17.50
2019-03-29T16:00:28.337Z,17.83
2019-03-29T16:03:02.937Z,17.17
2019-03-29T16:05:39.887Z,21.50
2019-03-29T16:11:32.340Z,17.43
2019-03-29T16:14:04.095Z,16.00
2019-03-29T16:19:14.957Z,16.47
2019-03-29T16:21:50.198Z,16.37
2019-03-29T16:27:16.798Z,17.90
2019-03-29T16:29:50.504Z,16.63
2019-03-29T16:32:42.167Z,17.00
2019-03-29T16:37:58.628Z,17.10
2019-03-29T16:40:31.981Z,16.47
2019-03-29T16:43:28.417Z,16.77
2019-03-29T16:46:02.934Z,16.60
2019-03-29T16:51:37.637Z,18.40
2019-03-29T17:00:52.060Z,17.43
2019-03-29T17:03:30.992Z,18.50
2019-03-29T17:06:09.421Z,18.67
2019-03-29T17:08:47.616Z,18.73
2019-03-29T17:11:22.293Z,17.43
2019-03-29T17:13:53.869Z,18.63
2019-03-29T17:19:37.742Z,17.77
2019-03-29T17:25:02.827Z,19.07
2019-03-29T17:27:32.606Z,18.13
2019-03-29T17:30:35.246Z,19.47
2019-03-29T17:33:05.495Z,19.83
2019-03-29T17:38:54.644Z,19.57
2019-03-29T17:41:31.017Z,20.47
2019-03-29T17:44:00.975Z,19.00
2019-03-29T17:46:33.116Z,19.43
2019-03-29T17:49:03.767Z,20.20
2019-03-29T17:51:40.136Z,19.63
2019-03-29T17:54:09.771Z,19.03
2019-03-29T18:02:13.941Z,20.03
2019-03-29T18:04:45.697Z,21.87
2019-03-29T18:10:02.079Z,20.73
2019-03-29T18:15:08.588Z,22.23
2019-03-29T18:17:42.593Z,21.77
2019-03-29T18:20:14.768Z,20.00
2019-03-29T18:22:58.759Z,23.37
2019-03-29T18:25:31.853Z,20.07
2019-03-29T18:30:54.378Z,21.13
2019-03-29T18:39:23.145Z,23.13
2019-03-29T18:41:57.644Z,21.30
2019-03-29T18:44:28.402Z,20.77
2019-03-29T18:52:34.981Z,22.10
2019-03-29T18:55:23.737Z,24.70
2019-03-29T19:00:48.677Z,22.93
2019-03-29T19:03:18.868Z,24.80
2019-03-29T19:05:55.965Z,23.50
2019-03-29T19:08:31.695Z,21.90
2019-03-29T19:11:01.217Z,22.87
2019-03-29T19:13:31.057Z,22.03
2019-03-29T19:16:00.842Z,22.87
2019-03-29T19:18:30.547Z,22.00
2019-03-29T19:21:00.267Z,23.13
2019-03-29T19:23:32.141Z,24.03
2019-03-29T19:26:01.709Z,22.53
2019-03-29T19:28:34.122Z,23.83
2019-03-29T19:31:08.150Z,24.83
2019-03-29T19:33:40.422Z,22.17
2019-03-29T19:36:10.127Z,24.53
2019-03-29T19:38:41.421Z,23.03
2019-03-29T19:41:11.477Z,26.97
2019-03-29T19:43:42.160Z,24.70
2019-03-29T19:46:19.474Z,22.70
2019-03-29T19:48:54.294Z,22.77
2019-03-29T19:54:19.561Z,20.80
2019-03-29T19:56:58.918Z,25.57
2019-03-29T19:59:48.002Z,24.03
2019-03-29T20:02:05.468Z,22.07
2019-03-29T20:04:44.067Z,21.90
2019-03-29T20:07:14.628Z,23.50
2019-03-29T20:12:38.256Z,24.07
2019-03-29T20:18:29.658Z,24.43
2019-03-29T20:21:01.336Z,25.70
2019-03-29T20:23:32.292Z,29.23
2019-03-29T20:26:03.646Z,29.07
2019-03-29T20:28:51.805Z,26.30
2019-03-29T20:31:23.331Z,27.67
2019-03-29T20:33:55.005Z,32.00
2019-03-29T20:36:24.932Z,26.17
2019-03-29T20:38:55.020Z,27.23
2019-03-29T20:41:29.405Z,29.67
2019-03-29T20:44:06.094Z,28.10
2019-03-29T20:46:45.282Z,27.50
2019-03-29T20:49:22.807Z,31.77
2019-03-29T20:51:52.584Z,30.43
2019-03-29T20:54:41.258Z,29.57
2019-03-29T21:00:01.368Z,33.07
2019-03-29T21:02:32.046Z,36.53
2019-03-29T21:05:02.050Z,31.80
2019-03-29T21:10:38.298Z,31.17
2019-03-29T21:13:13.154Z,32.73
2019-03-29T21:15:49.970Z,34.67
2019-03-29T21:18:22.058Z,33.30
2019-03-29T21:20:56.874Z,33.67
2019-03-29T21:23:30.707Z,33.47
2019-03-29T21:26:18.366Z,34.20
2019-03-29T21:28:52.623Z,33.40
2019-03-29T21:31:27.361Z,35.30
2019-03-29T21:33:58.951Z,37.10
2019-03-29T21:36:31.087Z,34.10
2019-03-29T21:39:16.698Z,35.07
2019-03-29T21:41:51.525Z,33.67
2019-03-29T21:44:35.983Z,33.23
2019-03-29T21:47:05.369Z,34.30
2019-03-29T21:49:38.265Z,34.67
2019-03-29T21:52:09.342Z,35.47
2019-03-29T21:54:47.652Z,36.33
2019-03-29T21:57:28.350Z,35.63
2019-03-29T22:00:02.718Z,35.50
2019-03-29T22:02:35.544Z,35.97
2019-03-29T22:05:10.519Z,36.10
2019-03-29T22:07:44.909Z,36.17
2019-03-29T22:10:32.195Z,34.93
2019-03-29T22:13:06.167Z,36.23
2019-03-29T22:18:51.698Z,36.17
2019-03-29T22:21:49.550Z,34.90
2019-03-29T22:24:31.265Z,36.93
2019-03-29T22:27:13.296Z,36.60
2019-03-29T22:29:42.831Z,36.43
2019-03-29T22:32:12.426Z,34.50
2019-03-29T22:34:42.547Z,35.70
2019-03-29T22:37:35.775Z,37.00
2019-03-29T22:42:42.524Z,32.27
2019-03-29T22:45:21.869Z,36.50
2019-03-29T22:48:24.428Z,34.30
2019-03-29T22:51:14.681Z,36.80
2019-03-29T22:53:44.563Z,35.30
2019-03-29T22:56:26.724Z,39.07
2019-03-29T22:58:56.478Z,36.23
2019-03-29T23:01:54.123Z,37.97
2019-03-29T23:04:23.728Z,35.53
2019-03-29T23:06:58.074Z,35.83
2019-03-29T23:13:06.570Z,36.33
2019-03-29T23:15:33.416Z,34.27
2019-03-29T23:18:24.048Z,37.60
2019-03-29T23:20:59.135Z,34.70
2019-03-29T23:23:30.557Z,37.70
2019-03-29T23:26:21.463Z,37.07
2019-03-29T23:28:52.816Z,35.97
2019-03-29T23:34:09.556Z,35.63
2019-03-29T23:39:36.891Z,36.37
2019-03-29T23:42:07.278Z,38.57
2019-03-29T23:45:05.296Z,36.93
2019-03-29T23:50:21.857Z,37.33
2019-03-29T23:52:56.881Z,37.67
2019-03-29T23:55:26.722Z,35.80
2019-03-29T23:58:15.920Z,38.37
